Aviation Digital Data Service (ADDS)

Output produced by METARs form (0345 UTC 23 November 2017)
found at http://www.aviationweather.gov/adds/metars/
 
RKSG 230256Z 00000KT 5SM BR SCT030 02/02 A3016 RMK AO2A SNE21 SLP217 P0001 60036 T00220022 58003 PWINO TSNO $
TAF AMD RKSG 230307Z 2303/2402 24004KT 8000 RA BKN013 QNH3012INS 
     BECMG 2303/2305 24005KT 9000 -RA BKN020 QNH3010INS TX05/2306Z TN00/2304Z
       
RKTU 230336Z 20005KT 6000 BKN015 BKN030 02/00 Q1021 NOSIG
TAF AMD RKTU 230225Z 2302/2406 27010KT 1600 -SNRA BR SCT015 BKN030 TX05/2306Z TNM03/2321Z 
     BECMG 2303/2304 9000 NSW BKN030 
     BECMG 2312/2313 27006KT 4800 -SN BR BKN015 BKN030
       
RKTN 230300Z 30013KT CAVOK 07/M11 Q1019 NOSIG
TAF RKTN 222300Z 2300/2406 31006KT 9999 SCT030 TX08/2307Z TNM01/2320Z 
     BECMG 2302/2303 31011KT 
     BECMG 2310/2311 31006KT
       
RKPK 230300Z 34009KT 9999 FEW040 08/M04 Q1020 NOSIG
TAF RKPK 222300Z 2300/2406 30006KT 9999 SCT030 TX10/2306Z TN00/2321Z
       
RKSS 230300Z 32016KT 9999 SCT035 04/M08 Q1021 NOSIG
TAF RKSS 222300Z 2300/2406 32007KT 9999 FEW010 BKN025 OVC120 TX05/2306Z TNM03/2321Z TX04/2406Z 
     TEMPO 2300/2301 -SN 
     BECMG 2302/2303 SCT030 
     BECMG 2312/2313 06005KT FEW010 BKN025 OVC120 
     BECMG 2316/2317 12006KT 3500 -SN 
     BECMG 2402/2403 35008KT 7000 NSW SCT030
       
RKSI 230330Z 31016KT 9999 SCT025 05/M08 Q1020 NOSIG
TAF RKSI 222300Z 2300/2406 32010KT 9999 SCT030 BKN120 TX04/2306Z TNM02/2321Z TX03/2405Z 
     TEMPO 2300/2302 3500 -SN FEW010 BKN025 OVC100 
     TEMPO 2303/2308 32015G28KT 
     BECMG 2315/2316 08007KT 2800 -SN FEW010 BKN025 OVC100 
     TEMPO 2320/2323 7000 NSW 
     BECMG 2402/2403 33012KT 7000 NSW SCT030 BKN120
       
RKPC 230300Z 33014KT 290V350 9999 SCT035 10/M02 Q1023 WS R07 NOSIG
TAF RKPC 222300Z 2300/2406 32016G28KT 9999 SCT030 TX10/2303Z TN07/2318Z TX12/2405Z 
     BECMG 2310/2311 30012KT BKN030 
     BECMG 2315/2316 28015G25KT 
     TEMPO 2403/2406 29020G35KT
       
RKJK 230256Z 31013KT 6SM RA BR FEW002 SCT006 BKN013 BKN024 BKN037 OVC060 03/02 A3018 RMK AO2A PK WND 31035/33 RAB38 CIG 008V024 SLPNO P0008 60015 T00280022 $
TAF AMD RKJK 230323Z 2303/2405 32015G25KT 9999 BKN013 620504 QNH3012INS 
     TEMPO 2304/2307 33030G35KT 
     BECMG 2306/2307 31012KT 4800 -RASN BKN015 620306 QNH3012INS TX05/2306Z TN01/2320Z
       
RKSO 230255Z 25006KT 6SM BR SCT030 03/03 A3016 RMK AO2A SLP214 $
TAF AMD RKSO 230337Z 2303/2409 VRB06KT 8000 BR SCT020 QNH3012INS 
     BECMG 2311/2312 31007KT 4800 -SHSN BKN020 620207 QNH3012INS TX06/2306Z TNM04/2322Z
       
RKSM 230300Z 31007G017KT 9999 BKN040 06/M04 A3015
TAF RKSM 222300Z 2300/2406 24006KT 9999 BKN030 
     BECMG 2302/2303 31012KT 9999 SCT040 TX05/2306Z TNM01/2321Z
       
RKNY 230300Z 27014KT 240V310 CAVOK 03/M07 Q1016 NOSIG
TAF RKNY 222300Z 2300/2406 26010KT CAVOK TX06/2305Z TNM01/2320Z TX06/2406Z 
     BECMG 2302/2303 29015G25KT 9999 SCT030 BKN120 
     BECMG 2307/2308 23015G25KT CAVOK 
     BECMG 2315/2316 29010KT 9999 SCT030 BKN120